This is the latest recevied weather packets stored in our database for station/object WMKP. If no packets are shown the sender has not sent any weather packets the latest 10 day(s).
| Time | Temp. | Humidity | Pressure | Rain* | Wind** | Luminosity | Snow |
|---|---|---|---|---|---|---|---|
| 1778013612 | 23.89° C | 94% | 1007 hPa | - | - | - | - |
| 1778011826 | 23.89° C | 94% | 1007 hPa | - | - | - | - |
| 1778010007 | 25° C | 88% | 1007 hPa | - | - | - | - |
| 1778009410 | 25° C | 94% | 1008 hPa | - | - | - | - |
| 1778008225 | 25.56° C | 83% | 1008 hPa | - | - | - | - |
| 1778006414 | 26.67° C | 88% | 1008 hPa | - | - | - | - |
| 1778004635 | 26.67° C | 88% | 1008 hPa | - | - | - | - |
| 1778002807 | 27.78° C | 83% | 1008 hPa | - | - | - | - |
| 1778001024 | 27.78° C | 83% | 1008 hPa | - | - | - | - |
| 1777999208 | 27.78° C | 83% | 1008 hPa | - | - | - | - |
| 1777997425 | 27.78° C | 83% | 1008 hPa | - | - | - | - |
| 1777995606 | 27.78° C | 83% | 1008 hPa | - | - | - | - |
| 1777995024 | 27.78° C | 83% | 1008 hPa | - | - | - | - |
| 1777994441 | 26.11° C | 91% | 1010.4 hPa | - | - | - | - |
| 1777993824 | 27.78° C | 83% | 1008 hPa | - | - | - | - |
| 1777992013 | 27.78° C | 83% | 1008 hPa | - | - | - | - |
| 1777988406 | 27.78° C | 83% | 1007 hPa | - | - | - | - |
| 1777986634 | 27.78° C | 83% | 1007 hPa | - | - | - | - |
| 1777984808 | 27.78° C | 83% | 1006 hPa | - | - | - | - |
| 1777983024 | 28.89° C | 79% | 1006 hPa | - | - | - | - |
| 1777981206 | 28.89° C | 79% | 1006 hPa | - | - | - | - |
| 1777979426 | 30° C | 74% | 1006 hPa | - | - | - | - |
| 1777977612 | 30° C | 74% | 1005 hPa | - | - | - | - |
| 1777975827 | 30° C | 70% | 1005 hPa | - | - | - | - |
| 1777974006 | 30.56° C | 62% | 1005 hPa | - | - | - | - |
* Rain since midnight (hover to see other rain measurements)
** Current wind speed in m/s (hover to see current wind gust speed)